Wetterdaten: Mittwoch, 11.02.2015
Datum Zeit Temp. A. Mod.Schuppen Waschkche Feuchte A. Luftdruck Regen Wind Richtung Richtung Sonnenschein Helligkeit Solar
11.02.2015 00:03 5,4 C 4,8 C 5,6 C 85 % 1029,2 hPa 0,0 l/m 1,6 km/h (1 Bft) O-NO22.5 75 0 min 0 lux 0 W/m
11.02.2015 00:09 5,4 C 4,8 C 5,6 C 85 % 1029,2 hPa 0,0 l/m 0,8 km/h (0 Bft) O-NO45 70 0 min 0 lux 0 W/m
11.02.2015 00:14 5,4 C 4,8 C 5,6 C 85 % 1029,2 hPa 0,0 l/m 0,4 km/h (0 Bft) O 80 0 min 0 lux 0 W/m
11.02.2015 00:19 5,4 C 4,7 C 5,6 C 85 % 1029,2 hPa 0,0 l/m 0,0 km/h (0 Bft) O-NO 65 0 min 0 lux 0 W/m
11.02.2015 00:24 5,4 C 4,7 C 5,6 C 85 % 1029,2 hPa 0,0 l/m 0,0 km/h (0 Bft) O-NO 65 0 min 0 lux 0 W/m
11.02.2015 00:28 5,3 C 4,7 C 5,6 C 85 % 1029,2 hPa 0,0 l/m 0,0 km/h (0 Bft) O-NO 65 0 min 0 lux 0 W/m
11.02.2015 00:33 5,3 C 4,7 C 5,6 C 85 % 1029,2 hPa 0,0 l/m 0,0 km/h (0 Bft) O-NO 65 0 min 0 lux 0 W/m
11.02.2015 00:39 5,3 C 4,6 C 5,6 C 85 % 1029,2 hPa 0,0 l/m 0,0 km/h (0 Bft) O-NO 65 0 min 0 lux 0 W/m
11.02.2015 00:44 5,2 C 4,6 C 5,6 C 85 % 1029,2 hPa 0,0 l/m 0,0 km/h (0 Bft) O-NO 65 0 min 0 lux 0 W/m
11.02.2015 00:49 5,2 C 4,6 C 5,6 C 85 % 1029,2 hPa 0,0 l/m 0,0 km/h (0 Bft) O-NO 65 0 min 0 lux 0 W/m
11.02.2015 00:54 5,2 C 4,6 C 5,6 C 85 % 1029,2 hPa 0,0 l/m 0,7 km/h (0 Bft) O-NO22.5 70 0 min 0 lux 0 W/m
11.02.2015 00:59 5,2 C 4,6 C 5,6 C 85 % 1029,2 hPa 0,0 l/m 0,1 km/h (0 Bft) O22.5 90 0 min 0 lux 0 W/m
11.02.2015 01:03 5,2 C 4,6 C 5,6 C 85 % 1029,2 hPa 0,0 l/m 0,5 km/h (0 Bft) O 95 0 min 0 lux 0 W/m
11.02.2015 01:09 5,2 C 4,6 C 5,6 C 85 % 1029,2 hPa 0,0 l/m 0,4 km/h (0 Bft) O22.5 85 0 min 0 lux 0 W/m
11.02.2015 01:14 5,2 C 4,6 C 5,6 C 85 % 1029,2 hPa 0,0 l/m 5,1 km/h (1 Bft) O45 95 0 min 0 lux 0 W/m
11.02.2015 01:19 5,2 C 4,7 C 5,6 C 85 % 1029,2 hPa 0,0 l/m 4,7 km/h (1 Bft) O22.5 90 0 min 0 lux 0 W/m
11.02.2015 01:24 5,2 C 4,7 C 5,6 C 85 % 1029,2 hPa 0,0 l/m 0,4 km/h (0 Bft) O 95 0 min 0 lux 0 W/m
11.02.2015 01:29 5,3 C 4,7 C 5,6 C 84 % 1029,2 hPa 0,0 l/m 0,1 km/h (0 Bft) O 95 0 min 0 lux 0 W/m
11.02.2015 01:33 5,2 C 4,7 C 5,6 C 84 % 1029,2 hPa 0,0 l/m 2,9 km/h (1 Bft) O-SO 105 0 min 0 lux 0 W/m
11.02.2015 01:39 5,3 C 4,7 C 5,6 C 84 % 1029,2 hPa 0,0 l/m 4,5 km/h (1 Bft) O-NO22.5 75 0 min 0 lux 0 W/m
11.02.2015 01:44 5,3 C 4,7 C 5,6 C 84 % 1029,2 hPa 0,0 l/m 0,7 km/h (0 Bft) O22.5 95 0 min 0 lux 0 W/m
11.02.2015 01:49 5,3 C 4,7 C 5,6 C 83 % 1029,2 hPa 0,0 l/m 0,8 km/h (0 Bft) O22.5 95 0 min 0 lux 0 W/m
11.02.2015 01:54 5,3 C 4,7 C 5,6 C 83 % 1029,2 hPa 0,0 l/m 8,1 km/h (2 Bft) O22.5 90 0 min 0 lux 0 W/m
11.02.2015 01:59 5,3 C 4,7 C 5,6 C 83 % 1029,2 hPa 0,0 l/m 10,2 km/h (2 Bft) O45 90 0 min 0 lux 0 W/m
11.02.2015 02:03 5,3 C 4,8 C 5,6 C 82 % 1029,2 hPa 0,0 l/m 8,9 km/h (2 Bft) O22.5 85 0 min 0 lux 0 W/m
11.02.2015 02:09 5,3 C 4,8 C 5,6 C 82 % 1029,2 hPa 0,0 l/m 1,0 km/h (0 Bft) O22.5 95 0 min 0 lux 0 W/m
11.02.2015 02:14 5,3 C 4,8 C 5,6 C 82 % 1029,2 hPa 0,0 l/m 0,3 km/h (0 Bft) O 90 0 min 0 lux 0 W/m
11.02.2015 02:19 5,3 C 4,8 C 5,6 C 82 % 1028,2 hPa 0,0 l/m 15,1 km/h (3 Bft) O-NO45 75 0 min 0 lux 0 W/m
11.02.2015 02:24 5,4 C 4,8 C 5,6 C 81 % 1028,2 hPa 0,0 l/m 9,3 km/h (2 Bft) O-NO45 75 0 min 0 lux 0 W/m
11.02.2015 02:29 5,3 C 4,8 C 5,6 C 81 % 1028,2 hPa 0,0 l/m 1,3 km/h (1 Bft) O22.5 95 0 min 0 lux 0 W/m
11.02.2015 02:34 5,3 C 4,8 C 5,6 C 81 % 1028,2 hPa 0,0 l/m 1,3 km/h (1 Bft) SO45 130 0 min 0 lux 0 W/m
11.02.2015 02:38 5,3 C 4,8 C 5,6 C 82 % 1028,2 hPa 0,0 l/m 0,7 km/h (0 Bft) O-NO45 70 0 min 0 lux 0 W/m
11.02.2015 02:43 5,3 C 4,7 C 5,6 C 82 % 1028,2 hPa 0,0 l/m 0,7 km/h (0 Bft) O45 100 0 min 0 lux 0 W/m
11.02.2015 02:49 5,2 C 4,7 C 5,6 C 82 % 1028,2 hPa 0,0 l/m 5,2 km/h (1 Bft) O-SO45 110 0 min 0 lux 0 W/m
11.02.2015 02:54 5,2 C 4,7 C 5,6 C 82 % 1028,2 hPa 0,0 l/m 2,1 km/h (1 Bft) O45 95 0 min 0 lux 0 W/m
11.02.2015 02:59 5,2 C 4,6 C 5,6 C 82 % 1028,2 hPa 0,0 l/m 10,1 km/h (2 Bft) O-SO67.5 105 0 min 0 lux 0 W/m
11.02.2015 03:04 5,2 C 4,6 C 5,6 C 82 % 1028,2 hPa 0,0 l/m 0,3 km/h (0 Bft) O-SO 115 0 min 0 lux 0 W/m
11.02.2015 03:08 5,2 C 4,6 C 5,6 C 82 % 1028,2 hPa 0,0 l/m 0,7 km/h (0 Bft) O22.5 100 0 min 0 lux 0 W/m
11.02.2015 03:13 5,2 C 4,5 C 5,6 C 81 % 1028,2 hPa 0,0 l/m 0,3 km/h (0 Bft) O 100 0 min 0 lux 0 W/m
11.02.2015 03:19 5,1 C 4,5 C 5,6 C 82 % 1028,2 hPa 0,0 l/m 0,3 km/h (0 Bft) SO22.5 130 0 min 0 lux 0 W/m
11.02.2015 03:24 5,1 C 4,4 C 5,6 C 82 % 1028,2 hPa 0,0 l/m 0,0 km/h (0 Bft) O-SO 105 0 min 0 lux 0 W/m
11.02.2015 03:29 4,9 C 4,4 C 5,6 C 82 % 1028,2 hPa 0,0 l/m 0,4 km/h (0 Bft) O-SO45 105 0 min 0 lux 0 W/m
11.02.2015 03:34 4,9 C 4,3 C 5,6 C 82 % 1028,2 hPa 0,0 l/m 0,1 km/h (0 Bft) O45 85 0 min 0 lux 0 W/m
11.02.2015 03:39 4,9 C 4,3 C 5,6 C 82 % 1028,2 hPa 0,0 l/m 0,3 km/h (0 Bft) O-SO45 115 0 min 0 lux 0 W/m
11.02.2015 03:43 4,8 C 4,3 C 5,6 C 81 % 1028,2 hPa 0,0 l/m 0,7 km/h (0 Bft) O-SO22.5 110 0 min 0 lux 0 W/m
11.02.2015 03:48 4,8 C 4,3 C 5,6 C 81 % 1028,2 hPa 0,0 l/m 4,8 km/h (1 Bft) O-SO45 115 0 min 0 lux 0 W/m
11.02.2015 03:54 4,7 C 4,2 C 5,6 C 81 % 1028,2 hPa 0,0 l/m 0,9 km/h (0 Bft) O-NO 75 0 min 0 lux 0 W/m
11.02.2015 03:59 4,7 C 4,2 C 5,6 C 81 % 1028,2 hPa 0,0 l/m 10,7 km/h (2 Bft) SO45 130 0 min 0 lux 0 W/m
11.02.2015 04:04 4,8 C 4,2 C 5,6 C 80 % 1028,2 hPa 0,0 l/m 9,4 km/h (2 Bft) O-SO45 110 0 min 0 lux 0 W/m
11.02.2015 04:09 4,8 C 4,2 C 5,6 C 80 % 1028,2 hPa 0,0 l/m 7,8 km/h (2 Bft) S-SO67.5 160 0 min 0 lux 0 W/m
11.02.2015 04:13 4,8 C 4,2 C 5,6 C 80 % 1028,2 hPa 0,0 l/m 11,8 km/h (2 Bft) SO45 145 0 min 0 lux 0 W/m
11.02.2015 04:18 4,8 C 4,2 C 5,6 C 80 % 1028,2 hPa 0,0 l/m 1,3 km/h (1 Bft) O-SO45 105 0 min 0 lux 0 W/m
11.02.2015 04:24 4,7 C 4,2 C 5,6 C 80 % 1027,2 hPa 0,0 l/m 1,0 km/h (0 Bft) O-SO45 105 0 min 0 lux 0 W/m
11.02.2015 04:29 4,7 C 4,2 C 5,6 C 80 % 1027,2 hPa 0,0 l/m 2,5 km/h (1 Bft) O-SO67.5 110 0 min 0 lux 0 W/m
11.02.2015 04:34 4,7 C 4,2 C 5,6 C 80 % 1027,2 hPa 0,0 l/m 0,9 km/h (0 Bft) O-SO67.5 120 0 min 0 lux 0 W/m
11.02.2015 04:39 4,7 C 4,1 C 5,6 C 80 % 1028,2 hPa 0,0 l/m 1,0 km/h (0 Bft) O-SO67.5 120 0 min 0 lux 0 W/m
11.02.2015 04:44 4,7 C 4,1 C 5,6 C 80 % 1027,2 hPa 0,0 l/m 1,1 km/h (1 Bft) O-SO22.5 115 0 min 0 lux 0 W/m
11.02.2015 04:48 4,7 C 4,1 C 5,6 C 81 % 1027,2 hPa 0,0 l/m 8,1 km/h (2 Bft) S-SO22.5 150 0 min 0 lux 0 W/m
11.02.2015 04:53 4,5 C 4,0 C 5,6 C 81 % 1027,2 hPa 0,0 l/m 0,1 km/h (0 Bft) SO22.5 140 0 min 0 lux 0 W/m
11.02.2015 04:59 4,5 C 3,9 C 5,6 C 81 % 1027,2 hPa 0,0 l/m 0,0 km/h (0 Bft) SO 140 0 min 0 lux 0 W/m
11.02.2015 05:04 4,5 C 3,9 C 5,6 C 81 % 1028,2 hPa 0,0 l/m 0,2 km/h (0 Bft) SO22.5 135 0 min 0 lux 0 W/m
11.02.2015 05:09 4,4 C 3,9 C 5,6 C 81 % 1027,2 hPa 0,0 l/m 0,0 km/h (0 Bft) O-SO 110 0 min 0 lux 0 W/m
11.02.2015 05:14 4,4 C 3,8 C 5,6 C 81 % 1027,2 hPa 0,0 l/m 4,8 km/h (1 Bft) S-SO22.5 150 0 min 0 lux 0 W/m
11.02.2015 05:18 4,3 C 3,8 C 5,6 C 81 % 1027,2 hPa 0,0 l/m 0,3 km/h (0 Bft) SO 140 0 min 0 lux 0 W/m
11.02.2015 05:23 4,3 C 3,7 C 5,6 C 81 % 1027,2 hPa 0,0 l/m 0,2 km/h (0 Bft) SO 145 0 min 0 lux 0 W/m
11.02.2015 05:29 4,3 C 3,7 C 5,6 C 81 % 1027,2 hPa 0,0 l/m 0,6 km/h (0 Bft) SO 140 0 min 0 lux 0 W/m
11.02.2015 05:34 4,3 C 3,7 C 5,6 C 81 % 1027,2 hPa 0,0 l/m 6,8 km/h (2 Bft) S-SO22.5 160 0 min 0 lux 0 W/m
11.02.2015 05:39 4,2 C 3,7 C 5,6 C 81 % 1027,2 hPa 0,0 l/m 0,9 km/h (0 Bft) S-SO22.5 165 0 min 0 lux 0 W/m
11.02.2015 05:44 4,2 C 3,6 C 5,6 C 81 % 1027,2 hPa 0,0 l/m 0,8 km/h (0 Bft) SO22.5 135 0 min 0 lux 0 W/m
11.02.2015 05:49 4,2 C 3,6 C 5,6 C 81 % 1027,2 hPa 0,0 l/m 0,3 km/h (0 Bft) SO22.5 130 0 min 0 lux 0 W/m
11.02.2015 05:54 4,2 C 3,6 C 5,6 C 81 % 1027,2 hPa 0,0 l/m 0,6 km/h (0 Bft) SO22.5 135 0 min 0 lux 0 W/m
11.02.2015 05:58 4,1 C 3,5 C 5,6 C 81 % 1027,2 hPa 0,0 l/m 1,9 km/h (1 Bft) S45 170 0 min 0 lux 0 W/m
11.02.2015 06:04 4,1 C 3,5 C 5,6 C 81 % 1027,2 hPa 0,0 l/m 7,2 km/h (2 Bft) S-SO45 155 0 min 0 lux 0 W/m
11.02.2015 06:09 4,0 C 3,5 C 5,6 C 81 % 1027,2 hPa 0,0 l/m 4,8 km/h (1 Bft) S-SO 165 0 min 0 lux 0 W/m
11.02.2015 06:14 3,9 C 3,4 C 5,6 C 81 % 1027,2 hPa 0,0 l/m 10,0 km/h (2 Bft) S-SO45 165 0 min 0 lux 0 W/m
11.02.2015 06:19 3,9 C 3,4 C 5,6 C 81 % 1027,2 hPa 0,0 l/m 10,3 km/h (2 Bft) S-SO22.5 160 0 min 0 lux 0 W/m
11.02.2015 06:24 3,9 C 3,4 C 5,6 C 81 % 1027,2 hPa 0,0 l/m 7,0 km/h (2 Bft) S-SO45 155 0 min 0 lux 0 W/m
11.02.2015 06:28 3,9 C 3,3 C 5,6 C 81 % 1027,2 hPa 0,0 l/m 0,9 km/h (0 Bft) SO45 125 0 min 0 lux 0 W/m
11.02.2015 06:34 3,9 C 3,3 C 5,6 C 81 % 1027,2 hPa 0,0 l/m 16,9 km/h (3 Bft) SO45 145 0 min 0 lux 0 W/m
11.02.2015 06:39 3,8 C 3,3 C 5,6 C 81 % 1027,2 hPa 0,0 l/m 7,7 km/h (2 Bft) SO22.5 135 0 min 0 lux 0 W/m
11.02.2015 06:44 3,7 C 3,2 C 5,6 C 81 % 1027,2 hPa 0,0 l/m 7,2 km/h (2 Bft) SO45 140 0 min 0 lux 0 W/m
11.02.2015 06:49 3,7 C 3,2 C 5,6 C 81 % 1027,2 hPa 0,0 l/m 0,7 km/h (0 Bft) SO22.5 135 0 min 0 lux 0 W/m
11.02.2015 06:54 3,7 C 3,2 C 5,6 C 81 % 1027,2 hPa 0,0 l/m 3,4 km/h (1 Bft) SO22.5 140 0 min 0 lux 0 W/m
11.02.2015 06:59 3,6 C 3,1 C 5,6 C 81 % 1027,2 hPa 0,0 l/m 10,1 km/h (2 Bft) SO45 145 0 min 0 lux 0 W/m
11.02.2015 07:04 3,6 C 3,1 C 5,6 C 81 % 1027,2 hPa 0,0 l/m 2,5 km/h (1 Bft) SO22.5 135 0 min 0 lux 0 W/m
11.02.2015 07:09 3,6 C 3,1 C 5,6 C 81 % 1027,2 hPa 0,0 l/m 2,3 km/h (1 Bft) S22.5 170 0 min 0 lux 0 W/m
11.02.2015 07:14 3,6 C 3,0 C 5,6 C 81 % 1027,2 hPa 0,0 l/m 1,3 km/h (1 Bft) SO22.5 130 0 min 0 lux 0 W/m
11.02.2015 07:19 3,6 C 3,0 C 5,6 C 81 % 1027,2 hPa 0,0 l/m 8,5 km/h (2 Bft) SO22.5 125 0 min 0 lux 0 W/m
11.02.2015 07:24 3,5 C 3,0 C 5,6 C 81 % 1027,2 hPa 0,0 l/m 1,8 km/h (1 Bft) SO45 125 0 min 0 lux 0 W/m
11.02.2015 07:29 3,5 C 3,0 C 5,6 C 81 % 1027,2 hPa 0,0 l/m 13,9 km/h (3 Bft) S-SO67.5 150 0 min 0 lux 0 W/m
11.02.2015 07:33 3,5 C 3,0 C 5,6 C 81 % 1027,2 hPa 0,0 l/m 1,6 km/h (1 Bft) O-SO45 115 0 min 0 lux 0 W/m
11.02.2015 07:39 3,5 C 3,0 C 5,6 C 81 % 1027,2 hPa 0,0 l/m 11,2 km/h (2 Bft) O-SO22.5 120 0 min 0 lux 0 W/m
11.02.2015 07:44 3,5 C 2,9 C 5,6 C 81 % 1027,2 hPa 0,0 l/m 1,7 km/h (1 Bft) SO45 125 0 min 48 lux 0 W/m
11.02.2015 07:49 3,4 C 2,9 C 5,6 C 81 % 1027,2 hPa 0,0 l/m 1,5 km/h (1 Bft) SO45 130 0 min 86 lux 0 W/m
11.02.2015 07:54 3,4 C 2,9 C 5,6 C 82 % 1027,2 hPa 0,0 l/m 7,4 km/h (2 Bft) SO45 140 0 min 107 lux 0 W/m
11.02.2015 07:59 3,4 C 2,8 C 5,6 C 81 % 1027,2 hPa 0,0 l/m 12,1 km/h (2 Bft) O-SO22.5 105 0 min 166 lux 0 W/m
11.02.2015 08:03 3,3 C 2,8 C 5,6 C 81 % 1027,2 hPa 0,0 l/m 3,1 km/h (1 Bft) O45 100 0 min 267 lux 2 W/m
11.02.2015 08:09 3,3 C 2,8 C 5,6 C 81 % 1027,2 hPa 0,0 l/m 11,4 km/h (2 Bft) O-SO67.5 120 0 min 369 lux 3 W/m
11.02.2015 08:14 3,3 C 2,9 C 5,6 C 80 % 1027,2 hPa 0,0 l/m 6,5 km/h (2 Bft) O67.5 80 0 min 486 lux 3 W/m
11.02.2015 08:19 3,4 C 2,9 C 5,6 C 80 % 1027,2 hPa 0,0 l/m 9,2 km/h (2 Bft) O67.5 95 0 min 571 lux 4 W/m
11.02.2015 08:24 3,4 C 3,0 C 5,6 C 80 % 1027,2 hPa 0,0 l/m 9,2 km/h (2 Bft) O67.5 95 0 min 787 lux 5 W/m
11.02.2015 08:29 3,4 C 3,1 C 5,6 C 80 % 1027,2 hPa 0,0 l/m 10,5 km/h (2 Bft) O45 80 0 min 948 lux 6 W/m
11.02.2015 08:34 3,4 C 3,2 C 5,6 C 80 % 1027,2 hPa 0,0 l/m 8,8 km/h (2 Bft) O22.5 90 0 min 1,06 klux 7 W/m
11.02.2015 08:38 3,3 C 3,2 C 5,6 C 80 % 1027,2 hPa 0,0 l/m 12,1 km/h (2 Bft) O45 90 0 min 1,28 klux 9 W/m
11.02.2015 08:44 3,4 C 3,3 C 5,6 C 80 % 1027,2 hPa 0,0 l/m 10,5 km/h (2 Bft) O-SO45 105 0 min 1,41 klux 10 W/m
11.02.2015 08:49 3,4 C 3,4 C 5,6 C 80 % 1027,2 hPa 0,0 l/m 9,0 km/h (2 Bft) O-NO22.5 75 0 min 1,55 klux 11 W/m
11.02.2015 08:54 3,4 C 3,4 C 5,6 C 80 % 1027,2 hPa 0,0 l/m 9,0 km/h (2 Bft) O22.5 85 0 min 1,75 klux 12 W/m
11.02.2015 08:59 3,4 C 3,6 C 5,6 C 80 % 1027,2 hPa 0,0 l/m 12,6 km/h (3 Bft) O67.5 90 0 min 1,87 klux 13 W/m
11.02.2015 09:03 3,4 C 3,7 C 5,6 C 80 % 1027,2 hPa 0,0 l/m 10,4 km/h (2 Bft) O22.5 80 0 min 2,85 klux 19 W/m
11.02.2015 09:08 3,4 C 3,9 C 5,6 C 80 % 1027,2 hPa 0,0 l/m 10,2 km/h (2 Bft) O22.5 90 0 min 2,26 klux 15 W/m
11.02.2015 09:14 3,5 C 3,9 C 5,6 C 80 % 1027,2 hPa 0,0 l/m 8,2 km/h (2 Bft) O22.5 85 0 min 2,53 klux 17 W/m
11.02.2015 09:19 3,4 C 4,1 C 5,6 C 80 % 1027,2 hPa 0,0 l/m 2,1 km/h (1 Bft) O22.5 95 0 min 2,66 klux 18 W/m
11.02.2015 09:24 3,5 C 4,1 C 5,6 C 80 % 1027,2 hPa 0,0 l/m 12,0 km/h (2 Bft) O-NO45 75 0 min 2,99 klux 20 W/m
11.02.2015 09:29 3,5 C 4,2 C 5,6 C 80 % 1027,2 hPa 0,0 l/m 10,5 km/h (2 Bft) O22.5 90 0 min 3,18 klux 22 W/m
11.02.2015 09:34 3,5 C 4,3 C 5,6 C 80 % 1027,2 hPa 0,0 l/m 12,6 km/h (3 Bft) O22.5 90 0 min 3,49 klux 24 W/m
11.02.2015 09:39 3,5 C 4,5 C 5,6 C 80 % 1027,2 hPa 0,0 l/m 8,8 km/h (2 Bft) O22.5 85 0 min 3,54 klux 24 W/m
11.02.2015 09:43 3,5 C 4,6 C 5,6 C 80 % 1027,2 hPa 0,0 l/m 10,4 km/h (2 Bft) O22.5 80 0 min 3,84 klux 26 W/m
11.02.2015 09:48 3,5 C 4,8 C 5,6 C 80 % 1027,2 hPa 0,0 l/m 9,0 km/h (2 Bft) O45 90 0 min 4,03 klux 28 W/m
11.02.2015 09:54 3,5 C 4,9 C 5,6 C 80 % 1027,2 hPa 0,0 l/m 11,8 km/h (2 Bft) O22.5 85 0 min 4,38 klux 30 W/m
11.02.2015 09:59 3,6 C 5,0 C 5,6 C 80 % 1027,2 hPa 0,0 l/m 9,7 km/h (2 Bft) O45 95 0 min 4,44 klux 30 W/m
11.02.2015 10:04 3,6 C 5,1 C 5,6 C 80 % 1027,2 hPa 0,0 l/m 5,4 km/h (2 Bft) O45 100 0 min 4,62 klux 32 W/m
11.02.2015 10:09 3,6 C 5,3 C 5,6 C 80 % 1027,2 hPa 0,0 l/m 6,7 km/h (2 Bft) O-NO22.5 70 0 min 4,96 klux 34 W/m
11.02.2015 10:13 3,6 C 5,3 C 5,6 C 80 % 1027,2 hPa 0,0 l/m 6,7 km/h (2 Bft) O-NO22.5 70 0 min 5,02 klux 34 W/m
11.02.2015 10:18 3,6 C 5,5 C 5,6 C 80 % 1027,2 hPa 0,0 l/m 8,3 km/h (2 Bft) O22.5 95 0 min 5,33 klux 36 W/m
11.02.2015 10:24 3,6 C 5,7 C 5,6 C 80 % 1027,2 hPa 0,0 l/m 4,8 km/h (1 Bft) O 90 0 min 6,05 klux 41 W/m
11.02.2015 10:29 3,8 C 6,0 C 5,6 C 80 % 1027,2 hPa 0,0 l/m 6,7 km/h (2 Bft) O22.5 95 0 min 6,33 klux 43 W/m
11.02.2015 10:34 3,7 C 6,1 C 5,6 C 80 % 1027,2 hPa 0,0 l/m 8,5 km/h (2 Bft) O45 85 0 min 6,33 klux 43 W/m
11.02.2015 10:39 3,8 C 6,5 C 5,6 C 80 % 1027,2 hPa 0,0 l/m 5,2 km/h (1 Bft) O-SO 105 0 min 6,71 klux 46 W/m
11.02.2015 10:44 3,9 C 6,7 C 5,6 C 80 % 1027,2 hPa 0,0 l/m 5,4 km/h (2 Bft) O-SO22.5 105 0 min 6,98 klux 48 W/m
11.02.2015 10:48 3,9 C 6,8 C 5,6 C 80 % 1027,2 hPa 0,0 l/m 10,6 km/h (2 Bft) SO45 125 0 min 6,93 klux 47 W/m
11.02.2015 10:53 3,9 C 6,8 C 5,6 C 80 % 1027,2 hPa 0,0 l/m 8,1 km/h (2 Bft) S-SO22.5 160 0 min 7,65 klux 52 W/m
11.02.2015 10:59 4,0 C 7,0 C 5,6 C 80 % 1027,2 hPa 0,0 l/m 14,6 km/h (3 Bft) SO45 125 0 min 8,01 klux 55 W/m
11.02.2015 11:04 4,0 C 7,2 C 5,6 C 79 % 1027,2 hPa 0,0 l/m 1,3 km/h (1 Bft) SO45 125 0 min 8,58 klux 59 W/m
11.02.2015 11:09 4,1 C 7,3 C 5,6 C 79 % 1027,2 hPa 0,0 l/m 2,5 km/h (1 Bft) O-SO67.5 115 0 min 9,1 klux 62 W/m
11.02.2015 11:13 4,1 C 7,4 C 5,6 C 79 % 1027,2 hPa 0,0 l/m 10,4 km/h (2 Bft) S-SO67.5 160 0 min 9,1 klux 62 W/m
11.02.2015 11:18 4,1 C 7,6 C 5,6 C 79 % 1027,2 hPa 0,0 l/m 9,0 km/h (2 Bft) S-SO45 155 0 min 9,3 klux 64 W/m
11.02.2015 11:24 4,1 C 7,8 C 5,6 C 79 % 1027,2 hPa 0,0 l/m 11,0 km/h (2 Bft) SO22.5 125 0 min 9,3 klux 64 W/m
11.02.2015 11:29 4,1 C 7,9 C 5,6 C 79 % 1027,2 hPa 0,0 l/m 11,0 km/h (2 Bft) O-SO67.5 115 0 min 9,4 klux 64 W/m
11.02.2015 11:34 4,2 C 8,0 C 5,6 C 79 % 1027,2 hPa 0,0 l/m 12,0 km/h (2 Bft) SO45 125 0 min 9,8 klux 67 W/m
11.02.2015 11:39 4,2 C 8,2 C 5,6 C 79 % 1027,2 hPa 0,0 l/m 14,5 km/h (3 Bft) SO45 125 0 min 9,9 klux 67 W/m
11.02.2015 11:44 4,3 C 8,3 C 5,6 C 79 % 1027,2 hPa 0,0 l/m 12,0 km/h (2 Bft) O-SO45 110 0 min 9,6 klux 66 W/m
11.02.2015 11:49 4,3 C 8,4 C 5,6 C 79 % 1026,2 hPa 0,0 l/m 10,0 km/h (2 Bft) O-SO22.5 105 0 min 9,8 klux 67 W/m
11.02.2015 11:53 4,4 C 8,7 C 5,6 C 79 % 1026,2 hPa 0,0 l/m 1,2 km/h (1 Bft) O-SO22.5 105 0 min 10,1 klux 69 W/m
11.02.2015 11:59 4,5 C 8,8 C 5,6 C 79 % 1026,2 hPa 0,0 l/m 1,3 km/h (1 Bft) O22.5 85 0 min 10,1 klux 69 W/m
11.02.2015 12:04 4,5 C 9,0 C 5,6 C 79 % 1026,2 hPa 0,0 l/m 0,7 km/h (0 Bft) O-SO 105 0 min 10,3 klux 70 W/m
11.02.2015 12:09 4,5 C 9,0 C 5,6 C 78 % 1026,2 hPa 0,0 l/m 13,0 km/h (3 Bft) O-SO45 120 0 min 10,7 klux 73 W/m
11.02.2015 12:13 4,5 C 9,0 C 5,6 C 78 % 1026,2 hPa 0,0 l/m 1,0 km/h (0 Bft) S-SO45 165 0 min 11,4 klux 78 W/m
11.02.2015 12:18 4,6 C 8,9 C 5,6 C 78 % 1026,2 hPa 0,0 l/m 13,3 km/h (3 Bft) SO67.5 125 0 min 11,8 klux 81 W/m
11.02.2015 12:24 4,6 C 9,3 C 5,6 C 78 % 1026,2 hPa 0,0 l/m 5,7 km/h (2 Bft) S-SO45 155 0 min 12,1 klux 83 W/m
11.02.2015 12:29 4,7 C 9,7 C 5,6 C 78 % 1026,2 hPa 0,0 l/m 10,4 km/h (2 Bft) O-SO22.5 115 0 min 12,2 klux 83 W/m
11.02.2015 12:34 4,7 C 9,8 C 5,6 C 78 % 1026,2 hPa 0,0 l/m 11,6 km/h (2 Bft) SO45 135 0 min 12,7 klux 87 W/m
11.02.2015 12:39 4,7 C 10,0 C 5,6 C 77 % 1026,2 hPa 0,0 l/m 12,0 km/h (2 Bft) SO67.5 130 0 min 13,2 klux 90 W/m
11.02.2015 12:44 4,7 C 9,9 C 5,6 C 77 % 1026,2 hPa 0,0 l/m 11,3 km/h (2 Bft) O-SO45 115 0 min 12,8 klux 88 W/m
11.02.2015 12:48 4,7 C 10,1 C 5,6 C 77 % 1026,2 hPa 0,0 l/m 8,3 km/h (2 Bft) SO22.5 140 0 min 13,2 klux 90 W/m
11.02.2015 12:53 4,8 C 10,2 C 5,6 C 77 % 1026,2 hPa 0,0 l/m 10,9 km/h (2 Bft) SO67.5 130 0 min 13,3 klux 91 W/m
11.02.2015 12:59 4,8 C 10,3 C 5,6 C 77 % 1026,2 hPa 0,0 l/m 11,6 km/h (2 Bft) S-SO22.5 150 0 min 13,7 klux 94 W/m
11.02.2015 13:04 4,9 C 10,4 C 5,6 C 77 % 1026,2 hPa 0,0 l/m 10,4 km/h (2 Bft) O22.5 95 0 min 14,4 klux 98 W/m
11.02.2015 13:09 4,9 C 11,1 C 5,6 C 77 % 1026,2 hPa 0,0 l/m 6,1 km/h (2 Bft) SO45 135 0 min 15,4 klux 105 W/m
11.02.2015 13:13 5,2 C 11,7 C 5,6 C 77 % 1026,2 hPa 0,0 l/m 6,8 km/h (2 Bft) S-SO 165 0 min 16,3 klux 111 W/m
11.02.2015 13:18 5,3 C 11,9 C 5,6 C 76 % 1025,1 hPa 0,0 l/m 12,7 km/h (3 Bft) S-SW22.5 205 0 min 17,3 klux 118 W/m
11.02.2015 13:24 5,3 C 11,9 C 5,6 C 76 % 1025,1 hPa 0,0 l/m 14,1 km/h (3 Bft) S45 175 0 min 18,5 klux 127 W/m
11.02.2015 13:29 5,3 C 12,0 C 5,6 C 76 % 1025,1 hPa 0,0 l/m 18,5 km/h (3 Bft) S22.5 185 0 min 17,4 klux 119 W/m
11.02.2015 13:34 5,3 C 12,4 C 5,6 C 75 % 1025,1 hPa 0,0 l/m 11,9 km/h (2 Bft) S22.5 180 0 min 18,9 klux 129 W/m
11.02.2015 13:39 5,4 C 12,6 C 5,6 C 75 % 1025,1 hPa 0,0 l/m 13,3 km/h (3 Bft) S22.5 175 0 min 21,2 klux 145 W/m
11.02.2015 13:44 5,5 C 13,5 C 5,6 C 76 % 1025,1 hPa 0,0 l/m 5,0 km/h (1 Bft) S22.5 170 0 min 21,8 klux 149 W/m
11.02.2015 13:48 5,5 C 13,1 C 5,6 C 75 % 1025,1 hPa 0,0 l/m 16,6 km/h (3 Bft) S-SO45 150 0 min 19,4 klux 133 W/m
11.02.2015 13:53 5,5 C 13,1 C 5,6 C 74 % 1025,1 hPa 0,0 l/m 11,6 km/h (2 Bft) S-SO45 160 0 min 20,2 klux 138 W/m
11.02.2015 13:59 5,6 C 13,4 C 5,6 C 74 % 1025,1 hPa 0,0 l/m 14,2 km/h (3 Bft) O-SO45 120 0 min 21,7 klux 148 W/m
11.02.2015 14:04 5,6 C 13,5 C 5,6 C 74 % 1025,1 hPa 0,0 l/m 8,3 km/h (2 Bft) O-SO45 115 0 min 20,5 klux 140 W/m
11.02.2015 14:09 5,6 C 14,3 C 5,6 C 74 % 1025,1 hPa 0,0 l/m 13,2 km/h (3 Bft) O-SO22.5 105 0 min 25,5 klux 174 W/m
11.02.2015 14:13 5,6 C 16,1 C 5,6 C 74 % 1025,1 hPa 0,0 l/m 8,6 km/h (2 Bft) O-SO45 110 4 min 41,2 klux 282 W/m
11.02.2015 14:18 6,2 C 19,6 C 5,6 C 73 % 1025,1 hPa 0,0 l/m 8,8 km/h (2 Bft) O-SO45 120 5 min 39,6 klux 271 W/m
11.02.2015 14:24 6,5 C 21,6 C 5,6 C 72 % 1024,1 hPa 0,0 l/m 8,9 km/h (2 Bft) O-SO22.5 105 6 min 39,1 klux 267 W/m
11.02.2015 14:29 6,8 C 21,7 C 5,7 C 71 % 1024,1 hPa 0,0 l/m 14,1 km/h (3 Bft) S22.5 170 5 min 37,2 klux 254 W/m
11.02.2015 14:34 6,8 C 19,5 C 5,7 C 70 % 1024,1 hPa 0,0 l/m 10,8 km/h (2 Bft) SO22.5 130 5 min 29,4 klux 201 W/m
11.02.2015 14:39 6,4 C 17,0 C 5,7 C 71 % 1024,1 hPa 0,0 l/m 2,1 km/h (1 Bft) O-SO22.5 115 0 min 26,8 klux 183 W/m
11.02.2015 14:44 6,4 C 16,7 C 5,7 C 71 % 1024,1 hPa 0,0 l/m 11,0 km/h (2 Bft) O-SO22.5 115 5 min 36,6 klux 250 W/m
11.02.2015 14:48 6,4 C 18,0 C 5,7 C 71 % 1024,1 hPa 0,0 l/m 8,5 km/h (2 Bft) O-SO67.5 115 4 min 30,6 klux 209 W/m
11.02.2015 14:54 6,3 C 16,7 C 5,7 C 70 % 1024,1 hPa 0,0 l/m 12,5 km/h (2 Bft) O45 100 0 min 20,2 klux 138 W/m
11.02.2015 14:59 6,2 C 15,6 C 5,8 C 70 % 1024,1 hPa 0,0 l/m 12,2 km/h (2 Bft) O-SO45 105 5 min 28,0 klux 192 W/m
11.02.2015 15:04 6,2 C 15,6 C 5,8 C 71 % 1024,1 hPa 0,0 l/m 6,3 km/h (2 Bft) O22.5 95 5 min 32,0 klux 219 W/m
11.02.2015 15:09 6,4 C 17,6 C 5,8 C 71 % 1024,1 hPa 0,0 l/m 8,5 km/h (2 Bft) O22.5 90 5 min 30,6 klux 209 W/m
11.02.2015 15:13 6,4 C 17,8 C 5,8 C 71 % 1024,1 hPa 0,0 l/m 5,2 km/h (1 Bft) O-SO22.5 115 4 min 30,2 klux 207 W/m
11.02.2015 15:18 6,4 C 18,4 C 5,8 C 71 % 1024,1 hPa 0,0 l/m 11,1 km/h (2 Bft) S-SO22.5 165 5 min 29,4 klux 201 W/m
11.02.2015 15:24 6,4 C 18,1 C 5,8 C 71 % 1024,1 hPa 0,0 l/m 6,8 km/h (2 Bft) S22.5 170 6 min 28,3 klux 194 W/m
11.02.2015 15:29 6,3 C 17,6 C 5,8 C 71 % 1024,1 hPa 0,0 l/m 7,2 km/h (2 Bft) SO45 135 5 min 27,3 klux 187 W/m
11.02.2015 15:34 6,3 C 17,6 C 5,9 C 72 % 1024,1 hPa 0,0 l/m 5,7 km/h (2 Bft) O 85 5 min 26,0 klux 178 W/m
11.02.2015 15:39 6,3 C 17,5 C 5,9 C 72 % 1024,1 hPa 0,0 l/m 1,6 km/h (1 Bft) O22.5 90 5 min 24,3 klux 166 W/m
11.02.2015 15:44 6,2 C 17,1 C 5,9 C 71 % 1024,1 hPa 0,0 l/m 1,9 km/h (1 Bft) SO22.5 135 5 min 23,6 klux 161 W/m
11.02.2015 15:48 6,2 C 16,2 C 5,9 C 70 % 1024,1 hPa 0,0 l/m 1,0 km/h (0 Bft) O-SO22.5 115 4 min 23,5 klux 161 W/m
11.02.2015 15:54 6,1 C 16,0 C 5,9 C 71 % 1024,1 hPa 0,0 l/m 6,8 km/h (2 Bft) O 95 6 min 22,3 klux 153 W/m
11.02.2015 15:59 6,1 C 15,6 C 5,9 C 71 % 1024,1 hPa 0,0 l/m 0,4 km/h (0 Bft) O-SO22.5 105 5 min 21,4 klux 146 W/m
11.02.2015 16:04 6,0 C 15,1 C 5,9 C 72 % 1023,1 hPa 0,0 l/m 0,3 km/h (0 Bft) SO22.5 140 5 min 21,4 klux 146 W/m
11.02.2015 16:09 6,0 C 15,0 C 5,9 C 72 % 1023,1 hPa 0,0 l/m 0,9 km/h (0 Bft) O 95 5 min 19,8 klux 135 W/m
11.02.2015 16:13 6,0 C 14,3 C 5,9 C 72 % 1023,1 hPa 0,0 l/m 8,3 km/h (2 Bft) SO22.5 125 4 min 18,2 klux 124 W/m
11.02.2015 16:18 6,0 C 13,8 C 6,0 C 72 % 1023,1 hPa 0,0 l/m 0,3 km/h (0 Bft) O-SO 115 5 min 18,2 klux 124 W/m
11.02.2015 16:24 6,1 C 13,5 C 6,0 C 72 % 1023,1 hPa 0,0 l/m 1,0 km/h (0 Bft) O-SO45 105 6 min 17,0 klux 116 W/m
11.02.2015 16:29 6,0 C 12,9 C 6,0 C 72 % 1023,1 hPa 0,0 l/m 3,7 km/h (1 Bft) O-SO 105 5 min 16,0 klux 109 W/m
11.02.2015 16:34 6,0 C 12,1 C 6,0 C 71 % 1023,1 hPa 0,0 l/m 2,2 km/h (1 Bft) O22.5 100 5 min 14,7 klux 101 W/m
11.02.2015 16:39 6,0 C 11,3 C 6,0 C 72 % 1023,1 hPa 0,0 l/m 1,2 km/h (1 Bft) SO22.5 125 5 min 13,1 klux 90 W/m
11.02.2015 16:44 6,0 C 11,0 C 6,0 C 72 % 1023,1 hPa 0,0 l/m 0,4 km/h (0 Bft) O 95 5 min 12,4 klux 85 W/m
11.02.2015 16:48 5,9 C 10,3 C 6,0 C 72 % 1023,1 hPa 0,0 l/m 0,6 km/h (0 Bft) O 100 4 min 11,3 klux 77 W/m
11.02.2015 16:54 5,8 C 9,4 C 6,0 C 72 % 1023,1 hPa 0,0 l/m 0,6 km/h (0 Bft) O-SO 105 6 min 10,0 klux 68 W/m
11.02.2015 16:59 5,8 C 9,0 C 6,0 C 72 % 1023,1 hPa 0,0 l/m 0,3 km/h (0 Bft) O-SO 115 5 min 8,70 klux 60 W/m
11.02.2015 17:04 5,8 C 8,1 C 6,0 C 72 % 1023,1 hPa 0,0 l/m 0,3 km/h (0 Bft) O22.5 90 5 min 7,49 klux 51 W/m
11.02.2015 17:09 5,6 C 7,1 C 6,0 C 73 % 1023,1 hPa 0,0 l/m 0,1 km/h (0 Bft) O 80 5 min 6,33 klux 43 W/m
11.02.2015 17:13 5,5 C 6,6 C 6,0 C 73 % 1023,1 hPa 0,0 l/m 0,0 km/h (0 Bft) O 80 4 min 5,02 klux 34 W/m
11.02.2015 17:18 5,5 C 5,6 C 6,0 C 73 % 1023,1 hPa 0,0 l/m 0,0 km/h (0 Bft) O 80 5 min 3,80 klux 26 W/m
11.02.2015 17:24 5,4 C 4,5 C 6,0 C 73 % 1023,1 hPa 0,0 l/m 0,1 km/h (0 Bft) O 80 6 min 2,53 klux 17 W/m
11.02.2015 17:29 5,2 C 3,5 C 6,0 C 74 % 1023,1 hPa 0,0 l/m 0,1 km/h (0 Bft) O-NO 75 5 min 1,20 klux 8 W/m
11.02.2015 17:34 5,1 C 3,0 C 6,0 C 74 % 1023,1 hPa 0,0 l/m 0,3 km/h (0 Bft) O-NO 75 0 min 1,20 klux 8 W/m
11.02.2015 17:39 4,9 C 2,2 C 6,0 C 74 % 1023,1 hPa 0,0 l/m 1,0 km/h (0 Bft) O22.5 100 0 min 854 lux 0 W/m
11.02.2015 17:44 4,8 C 1,5 C 6,0 C 75 % 1023,1 hPa 0,0 l/m 0,2 km/h (0 Bft) O-SO 105 0 min 577 lux 0 W/m
11.02.2015 17:48 4,7 C 1,2 C 6,0 C 75 % 1023,1 hPa 0,0 l/m 0,8 km/h (0 Bft) O-SO 105 0 min 373 lux 0 W/m
11.02.2015 17:54 4,5 C 0,7 C 6,0 C 75 % 1023,1 hPa 0,0 l/m 0,2 km/h (0 Bft) O-SO 105 0 min 219 lux 0 W/m
11.02.2015 17:59 4,4 C 0,5 C 6,0 C 75 % 1023,2 hPa 0,0 l/m 0,3 km/h (0 Bft) O-SO 105 0 min 117 lux 0 W/m
11.02.2015 18:04 4,3 C 0,3 C 6,0 C 76 % 1023,2 hPa 0,0 l/m 0,0 km/h (0 Bft) O-SO 105 0 min 57 lux 0 W/m
11.02.2015 18:09 4,2 C 0,1 C 6,0 C 76 % 1023,2 hPa 0,0 l/m 0,6 km/h (0 Bft) O-SO 105 0 min 25 lux 0 W/m
11.02.2015 18:13 4,1 C -0,3 C 6,0 C 76 % 1023,2 hPa 0,0 l/m 0,0 km/h (0 Bft) O-SO 105 0 min 11 lux 0 W/m
11.02.2015 18:18 3,9 C -0,7 C 6,0 C 76 % 1023,2 hPa 0,0 l/m 0,0 km/h (0 Bft) O-SO 105 0 min 4 lux 0 W/m
11.02.2015 18:24 3,9 C -0,9 C 6,0 C 76 % 1023,2 hPa 0,0 l/m 0,0 km/h (0 Bft) O-SO 105 0 min 0 lux 0 W/m
11.02.2015 18:29 3,7 C -1,1 C 6,0 C 76 % 1023,2 hPa 0,0 l/m 0,0 km/h (0 Bft) O-SO 105 0 min 0 lux 0 W/m
11.02.2015 18:34 3,5 C -1,0 C 6,0 C 77 % 1023,2 hPa 0,0 l/m 0,0 km/h (0 Bft) O-SO 105 0 min 0 lux 0 W/m
11.02.2015 18:39 3,5 C -1,0 C 6,0 C 77 % 1023,2 hPa 0,0 l/m 0,0 km/h (0 Bft) O-SO 105 0 min 0 lux 0 W/m
11.02.2015 18:44 3,3 C -1,2 C 6,0 C 77 % 1023,2 hPa 0,0 l/m 0,0 km/h (0 Bft) O-SO 105 0 min 0 lux 0 W/m
11.02.2015 18:48 3,2 C -1,4 C 6,0 C 77 % 1023,2 hPa 0,0 l/m 0,1 km/h (0 Bft) O-SO 105 0 min 0 lux 0 W/m
11.02.2015 18:54 3,0 C -1,5 C 6,0 C 78 % 1023,2 hPa 0,0 l/m 0,0 km/h (0 Bft) O-SO 105 0 min 0 lux 0 W/m
11.02.2015 18:59 2,9 C -1,6 C 6,0 C 78 % 1023,2 hPa 0,0 l/m 0,8 km/h (0 Bft) O-SO 105 0 min 0 lux 0 W/m
11.02.2015 19:04 2,9 C -1,5 C 6,0 C 78 % 1023,2 hPa 0,0 l/m 0,7 km/h (0 Bft) O-SO 105 0 min 0 lux 0 W/m
11.02.2015 19:09 2,8 C -1,6 C 6,0 C 78 % 1023,2 hPa 0,0 l/m 0,3 km/h (0 Bft) O-SO 110 0 min 0 lux 0 W/m
11.02.2015 19:13 2,8 C -1,7 C 6,1 C 79 % 1023,2 hPa 0,0 l/m 0,0 km/h (0 Bft) O-SO 110 0 min 0 lux 0 W/m
11.02.2015 19:18 2,5 C -1,8 C 6,1 C 78 % 1023,2 hPa 0,0 l/m 0,0 km/h (0 Bft) O-SO 110 0 min 0 lux 0 W/m
11.02.2015 19:24 2,5 C -1,7 C 6,1 C 79 % 1023,2 hPa 0,0 l/m 8,4 km/h (2 Bft) S-SO22.5 155 0 min 0 lux 0 W/m
11.02.2015 19:29 2,6 C -1,5 C 6,0 C 80 % 1023,2 hPa 0,0 l/m 7,9 km/h (2 Bft) SO22.5 130 0 min 0 lux 0 W/m
11.02.2015 19:34 2,8 C -1,3 C 6,1 C 80 % 1023,2 hPa 0,0 l/m 7,0 km/h (2 Bft) SO45 125 0 min 0 lux 0 W/m
11.02.2015 19:39 3,1 C -0,9 C 6,1 C 80 % 1023,2 hPa 0,0 l/m 8,2 km/h (2 Bft) S-SO22.5 155 0 min 0 lux 0 W/m
11.02.2015 19:43 3,1 C -0,9 C 6,1 C 79 % 1023,2 hPa 0,0 l/m 9,2 km/h (2 Bft) SO22.5 140 0 min 0 lux 0 W/m
11.02.2015 19:48 3,1 C -0,9 C 6,1 C 78 % 1023,2 hPa 0,0 l/m 8,3 km/h (2 Bft) SO 140 0 min 0 lux 0 W/m
11.02.2015 19:54 3,0 C -1,1 C 6,1 C 78 % 1023,2 hPa 0,0 l/m 1,5 km/h (1 Bft) SO 135 0 min 0 lux 0 W/m
11.02.2015 19:59 2,9 C -1,4 C 6,0 C 78 % 1023,2 hPa 0,0 l/m 4,2 km/h (1 Bft) O-SO 115 0 min 0 lux 0 W/m
11.02.2015 20:04 2,8 C -1,4 C 6,1 C 79 % 1023,2 hPa 0,0 l/m 7,1 km/h (2 Bft) O-SO 120 0 min 0 lux 0 W/m
11.02.2015 20:09 2,8 C -1,4 C 6,1 C 79 % 1023,2 hPa 0,0 l/m 1,6 km/h (1 Bft) O-SO22.5 115 0 min 0 lux 0 W/m
11.02.2015 20:13 2,7 C -1,5 C 6,1 C 79 % 1023,2 hPa 0,0 l/m 0,9 km/h (0 Bft) O 95 0 min 0 lux 0 W/m
11.02.2015 20:19 2,7 C -1,5 C 6,1 C 79 % 1023,2 hPa 0,0 l/m 4,2 km/h (1 Bft) O 100 0 min 0 lux 0 W/m
11.02.2015 20:24 2,7 C -1,6 C 6,1 C 79 % 1023,2 hPa 0,0 l/m 1,5 km/h (1 Bft) SO45 135 0 min 0 lux 0 W/m
11.02.2015 20:29 2,7 C -1,7 C 6,1 C 79 % 1023,2 hPa 0,0 l/m 1,6 km/h (1 Bft) O-SO22.5 105 0 min 0 lux 0 W/m
11.02.2015 20:34 2,5 C -1,8 C 6,1 C 80 % 1023,2 hPa 0,0 l/m 1,0 km/h (0 Bft) O 95 0 min 0 lux 0 W/m
11.02.2015 20:39 2,4 C -1,9 C 6,1 C 80 % 1023,2 hPa 0,0 l/m 1,3 km/h (1 Bft) SO22.5 125 0 min 0 lux 0 W/m
11.02.2015 20:43 2,3 C -1,9 C 6,1 C 80 % 1023,2 hPa 0,0 l/m 7,0 km/h (2 Bft) O22.5 95 0 min 0 lux 0 W/m
11.02.2015 20:48 2,3 C -1,6 C 6,1 C 80 % 1023,2 hPa 0,0 l/m 5,9 km/h (2 Bft) O-SO45 115 0 min 0 lux 0 W/m
11.02.2015 20:54 2,2 C -1,7 C 6,1 C 81 % 1023,2 hPa 0,0 l/m 0,9 km/h (0 Bft) O-SO22.5 120 0 min 0 lux 0 W/m
11.02.2015 20:59 2,1 C -1,7 C 6,1 C 81 % 1023,2 hPa 0,0 l/m 5,6 km/h (2 Bft) O-SO 120 0 min 0 lux 0 W/m
11.02.2015 21:04 2,1 C -1,9 C 6,1 C 81 % 1023,2 hPa 0,0 l/m 7,3 km/h (2 Bft) O-SO22.5 120 0 min 0 lux 0 W/m
11.02.2015 21:09 2,1 C -1,8 C 6,1 C 81 % 1023,2 hPa 0,0 l/m 9,4 km/h (2 Bft) S-SO22.5 155 0 min 0 lux 0 W/m
11.02.2015 21:13 2,2 C -1,7 C 6,1 C 81 % 1023,2 hPa 0,0 l/m 14,6 km/h (3 Bft) S-SO22.5 150 0 min 0 lux 0 W/m
11.02.2015 21:19 2,3 C -1,6 C 6,1 C 81 % 1023,2 hPa 0,0 l/m 8,1 km/h (2 Bft) S-SO45 150 0 min 0 lux 0 W/m
11.02.2015 21:24 2,2 C -1,6 C 6,1 C 81 % 1023,2 hPa 0,0 l/m 13,8 km/h (3 Bft) O-SO45 115 0 min 0 lux 0 W/m
11.02.2015 21:29 2,2 C -1,6 C 6,0 C 81 % 1023,2 hPa 0,0 l/m 11,3 km/h (2 Bft) SO45 135 0 min 0 lux 0 W/m
11.02.2015 21:34 2,0 C -1,8 C 6,1 C 81 % 1023,2 hPa 0,0 l/m 6,7 km/h (2 Bft) O22.5 95 0 min 0 lux 0 W/m
11.02.2015 21:39 1,9 C -1,9 C 6,1 C 81 % 1023,2 hPa 0,0 l/m 9,5 km/h (2 Bft) O-SO45 115 0 min 0 lux 0 W/m
11.02.2015 21:43 1,7 C -2,0 C 6,0 C 82 % 1023,2 hPa 0,0 l/m 6,0 km/h (2 Bft) O22.5 90 0 min 0 lux 0 W/m
11.02.2015 21:48 1,6 C -2,2 C 6,1 C 82 % 1023,2 hPa 0,0 l/m 7,8 km/h (2 Bft) O-SO22.5 105 0 min 0 lux 0 W/m
11.02.2015 21:54 1,6 C -2,2 C 6,1 C 82 % 1023,2 hPa 0,0 l/m 7,5 km/h (2 Bft) O-SO22.5 120 0 min 0 lux 0 W/m
11.02.2015 21:59 1,6 C -2,2 C 6,1 C 82 % 1023,2 hPa 0,0 l/m 1,4 km/h (1 Bft) SO22.5 130 0 min 0 lux 0 W/m
11.02.2015 22:04 1,6 C -2,1 C 6,1 C 82 % 1023,2 hPa 0,0 l/m 10,3 km/h (2 Bft) SO22.5 125 0 min 0 lux 0 W/m
11.02.2015 22:09 1,6 C -2,1 C 6,0 C 82 % 1023,2 hPa 0,0 l/m 7,4 km/h (2 Bft) O-SO45 120 0 min 0 lux 0 W/m
11.02.2015 22:13 1,6 C -2,1 C 6,0 C 83 % 1023,2 hPa 0,0 l/m 7,6 km/h (2 Bft) SO22.5 140 0 min 0 lux 0 W/m
11.02.2015 22:19 1,6 C -2,0 C 6,0 C 83 % 1023,2 hPa 0,0 l/m 10,5 km/h (2 Bft) SO22.5 125 0 min 0 lux 0 W/m
11.02.2015 22:24 1,6 C -2,0 C 6,0 C 83 % 1023,2 hPa 0,0 l/m 11,9 km/h (2 Bft) O-SO22.5 115 0 min 0 lux 0 W/m
11.02.2015 22:29 1,6 C -2,0 C 6,0 C 83 % 1023,2 hPa 0,0 l/m 10,4 km/h (2 Bft) SO45 145 0 min 0 lux 0 W/m
11.02.2015 22:34 1,6 C -2,0 C 6,0 C 83 % 1023,2 hPa 0,0 l/m 9,8 km/h (2 Bft) SO22.5 140 0 min 0 lux 0 W/m
11.02.2015 22:39 1,5 C -2,0 C 6,0 C 83 % 1023,2 hPa 0,0 l/m 9,1 km/h (2 Bft) SO22.5 130 0 min 0 lux 0 W/m
11.02.2015 22:43 1,5 C -2,2 C 6,0 C 83 % 1023,2 hPa 0,0 l/m 6,5 km/h (2 Bft) SO22.5 130 0 min 0 lux 0 W/m
11.02.2015 22:48 1,5 C -2,2 C 6,0 C 83 % 1023,2 hPa 0,0 l/m 6,5 km/h (2 Bft) SO22.5 135 0 min 0 lux 0 W/m
11.02.2015 22:54 1,4 C -2,2 C 6,0 C 83 % 1023,2 hPa 0,0 l/m 2,0 km/h (1 Bft) SO45 140 0 min 0 lux 0 W/m
11.02.2015 22:59 1,3 C -2,2 C 6,0 C 84 % 1023,2 hPa 0,0 l/m 2,4 km/h (1 Bft) S-SO22.5 150 0 min 0 lux 0 W/m
11.02.2015 23:04 1,3 C -2,2 C 6,0 C 84 % 1023,2 hPa 0,0 l/m 2,1 km/h (1 Bft) SO45 125 0 min 0 lux 0 W/m
11.02.2015 23:03 1,3 C -2,2 C 6,0 C 84 % 1023,2 hPa 0,0 l/m 2,1 km/h (1 Bft) SO45 125 0 min 0 lux 0 W/m
11.02.2015 23:09 1,2 C -2,2 C 6,0 C 84 % 1023,2 hPa 0,0 l/m 7,2 km/h (2 Bft) SO45 145 0 min 0 lux 0 W/m
11.02.2015 23:14 1,2 C -2,2 C 6,0 C 84 % 1023,2 hPa 0,0 l/m 10,8 km/h (2 Bft) SO45 135 0 min 0 lux 0 W/m
11.02.2015 23:18 1,2 C -2,2 C 6,0 C 84 % 1023,2 hPa 0,0 l/m 7,6 km/h (2 Bft) S-SO45 155 0 min 0 lux 0 W/m
11.02.2015 23:23 1,2 C -2,2 C 6,0 C 84 % 1023,2 hPa 0,0 l/m 5,4 km/h (2 Bft) S 175 0 min 0 lux 0 W/m
11.02.2015 23:29 1,2 C -2,1 C 6,0 C 84 % 1023,2 hPa 0,0 l/m 12,2 km/h (2 Bft) SO22.5 145 0 min 0 lux 0 W/m
11.02.2015 23:34 1,2 C -2,1 C 6,0 C 84 % 1023,2 hPa 0,0 l/m 7,9 km/h (2 Bft) SO45 145 0 min 0 lux 0 W/m
11.02.2015 23:39 1,2 C -2,2 C 6,0 C 84 % 1023,2 hPa 0,0 l/m 2,2 km/h (1 Bft) SO22.5 130 0 min 0 lux 0 W/m
11.02.2015 23:44 1,2 C -2,1 C 6,0 C 84 % 1023,2 hPa 0,0 l/m 11,9 km/h (2 Bft) SO22.5 130 0 min 0 lux 0 W/m
11.02.2015 23:49 1,2 C -2,2 C 6,0 C 84 % 1023,2 hPa 0,0 l/m 8,5 km/h (2 Bft) SO22.5 140 0 min 0 lux 0 W/m
11.02.2015 23:53 1,2 C -2,2 C 6,0 C 84 % 1022,2 hPa 0,0 l/m 10,4 km/h (2 Bft) SO45 145 0 min 0 lux 0 W/m
11.02.2015 23:58 1,1 C -2,2 C 6,0 C 85 % 1022,2 hPa 0,0 l/m 9,1 km/h (2 Bft) SO22.5 135 0 min 0 lux 0 W/m
_ Min-Zeit 23:58 21:48 00:03 14:34 23:53 - 00:19 - - - - -
Minimum _ 1,1 C -2,2 C 5,6 C 70 % 1022,2 hPa - 0,0 km/h (0 Bft) - - - - -
_ Max-Zeit 14:29 14:29 19:13 00:03 00:44 00:03 13:29 - - 14:24 14:13 14:13
Maximum _ 6,8 C 21,7 C 6,1 C 85 % 1029,2 hPa 0,0 l/m 18,5 km/h
S (3 Bft)
- - 6 min 41,2 klux 282 W/m
Durchschnitt _ 4,1 C 4,9 C 5,8 C 79 % 1025,7 hPa #0,0 l/m 5,5 km/h (2 Bft) SO - #3:09 h 5,26 klux 90 W/m